Time;durP1;ratioP1;P1;durP2;ratioP2;P2;SDS_P1;SDS_P2;PMS_P1;PMS_P2;Temp;Humidity;BMP_temperature;BMP_pressure;BME280_temperature;BME280_humidity;BME280_pressure;Samples;Min_cycle;Max_cycle;Signal;HPM_P1;HPM_P2
2021/06/29 00:00:37;;;;;;;1.98;1.00;;;22.10;71.50;;;;;;2344343;53;20928;-68
2021/06/29 00:03:05;;;;;;;2.00;0.90;;;22.00;71.50;;;;;;2587002;52;20935;-71
2021/06/29 00:05:32;;;;;;;1.48;0.70;;;22.00;71.50;;;;;;2347396;53;20918;-72
2021/06/29 00:07:59;;;;;;;3.12;1.00;;;22.00;71.50;;;;;;2346326;53;20945;-68
2021/06/29 00:10:27;;;;;;;1.73;0.85;;;22.10;71.50;;;;;;2346543;53;21066;-72
2021/06/29 00:12:53;;;;;;;1.87;0.85;;;22.00;71.40;;;;;;2346374;53;20950;-68
2021/06/29 00:15:20;;;;;;;2.20;0.95;;;22.00;71.50;;;;;;2588997;52;21014;-68
2021/06/29 00:17:47;;;;;;;1.67;0.82;;;22.00;71.60;;;;;;2348599;53;20986;-71
2021/06/29 00:20:13;;;;;;;1.42;0.70;;;22.00;71.70;;;;;;2348895;53;21340;-70
2021/06/29 00:22:40;;;;;;;2.47;0.80;;;22.00;71.70;;;;;;2345264;53;20954;-68
2021/06/29 00:25:07;;;;;;;1.90;0.90;;;22.00;71.70;;;;;;2584859;52;21549;-68
2021/06/29 00:27:33;;;;;;;1.58;0.65;;;22.00;71.70;;;;;;2344373;53;20938;-68
2021/06/29 00:29:59;;;;;;;1.87;0.90;;;22.00;71.70;;;;;;2345966;53;20960;-68
2021/06/29 00:32:26;;;;;;;2.85;1.02;;;22.00;71.70;;;;;;2499858;52;21319;-68
2021/06/29 00:34:53;;;;;;;1.65;0.80;;;22.00;71.80;;;;;;2352268;53;20967;-68
2021/06/29 00:37:19;;;;;;;1.77;0.90;;;22.00;71.90;;;;;;2344399;53;20916;-68
2021/06/29 00:39:49;;;;;;;1.95;0.95;;;22.00;72.00;;;;;;2348487;53;20958;-68
2021/06/29 00:42:16;;;;;;;3.20;0.90;;;22.00;72.10;;;;;;2348723;53;21864;-71
2021/06/29 00:44:47;;;;;;;2.47;1.10;;;22.00;72.10;;;;;;2348996;53;21760;-69
2021/06/29 00:47:13;;;;;;;2.67;1.30;;;22.00;72.10;;;;;;2347743;53;20928;-69
2021/06/29 00:49:39;;;;;;;3.72;1.33;;;21.90;71.90;;;;;;2348295;53;20959;-68
2021/06/29 00:52:09;;;;;;;2.60;1.30;;;21.90;71.90;;;;;;2345619;53;21351;-70
2021/06/29 00:54:35;;;;;;;2.70;1.12;;;21.90;72.00;;;;;;2349008;53;21765;-71
2021/06/29 00:57:01;;;;;;;3.45;1.30;;;21.90;72.10;;;;;;2344884;53;21402;-68
2021/06/29 00:59:27;;;;;;;2.03;1.02;;;21.90;72.20;;;;;;2346301;53;20899;-68
2021/06/29 01:01:53;;;;;;;2.80;1.20;;;21.90;72.30;;;;;;2348893;53;20978;-68
2021/06/29 01:04:20;;;;;;;2.15;1.20;;;21.90;72.30;;;;;;2345364;53;20946;-67
2021/06/29 01:06:48;;;;;;;2.62;1.02;;;21.90;72.30;;;;;;2345655;53;20961;-67
2021/06/29 01:09:16;;;;;;;2.17;1.12;;;21.90;72.30;;;;;;2345911;53;21049;-70
2021/06/29 01:11:42;;;;;;;2.37;1.37;;;21.90;72.30;;;;;;2343330;53;20949;-68
2021/06/29 01:14:10;;;;;;;3.67;1.30;;;21.90;72.30;;;;;;2345294;53;21017;-70
2021/06/29 01:16:36;;;;;;;3.50;1.42;;;21.90;72.30;;;;;;2346014;53;21291;-69
2021/06/29 01:19:03;;;;;;;2.92;1.48;;;21.90;72.30;;;;;;2345444;53;20954;-67
2021/06/29 01:21:34;;;;;;;2.75;1.52;;;21.90;72.40;;;;;;2349555;53;20934;-73
2021/06/29 01:24:01;;;;;;;3.42;1.50;;;21.90;72.40;;;;;;2351355;53;21673;-68
2021/06/29 01:26:31;;;;;;;2.50;1.50;;;21.90;72.60;;;;;;2345604;53;20982;-68
2021/06/29 01:29:06;;;;;;;2.20;1.12;;;21.90;72.60;;;;;;2348895;53;20947;-68
2021/06/29 01:31:34;;;;;;;2.83;1.48;;;21.90;72.60;;;;;;2586304;52;20986;-68
2021/06/29 01:34:00;;;;;;;2.85;1.50;;;21.90;72.60;;;;;;2343774;53;20920;-71
2021/06/29 01:36:32;;;;;;;3.83;1.40;;;21.90;72.60;;;;;;2587576;52;20990;-72
2021/06/29 01:38:58;;;;;;;2.83;1.20;;;21.90;72.60;;;;;;2334844;53;20975;-68
2021/06/29 01:41:25;;;;;;;2.15;1.10;;;21.90;72.60;;;;;;2345110;53;21033;-68
2021/06/29 01:43:55;;;;;;;2.60;1.45;;;21.90;72.60;;;;;;2345713;53;20917;-68
2021/06/29 01:46:24;;;;;;;4.68;1.08;;;21.90;72.60;;;;;;2349275;53;21041;-70
2021/06/29 01:48:53;;;;;;;2.72;1.15;;;21.90;72.50;;;;;;2344576;53;20998;-67
2021/06/29 01:51:20;;;;;;;2.40;1.42;;;21.90;72.50;;;;;;2344507;53;21039;-68
2021/06/29 01:53:48;;;;;;;2.42;1.02;;;21.90;72.50;;;;;;2345409;53;21043;-68
2021/06/29 01:56:14;;;;;;;4.90;1.40;;;21.90;72.50;;;;;;2348197;53;20961;-70
2021/06/29 01:58:54;;;;;;;2.35;1.00;;;21.90;72.50;;;;;;2588987;52;20914;-68
2021/06/29 02:01:20;;;;;;;2.20;1.10;;;21.90;72.50;;;;;;2344537;53;20948;-71
2021/06/29 02:03:46;;;;;;;3.37;1.27;;;21.90;72.50;;;;;;2570939;52;21718;-71
2021/06/29 02:06:15;;;;;;;2.83;0.93;;;21.90;72.30;;;;;;2346915;53;20997;-68
2021/06/29 02:08:42;;;;;;;2.17;1.00;;;21.90;72.30;;;;;;2348767;53;20986;-68
2021/06/29 02:11:09;;;;;;;2.67;1.12;;;21.90;72.20;;;;;;2348139;53;20938;-69
2021/06/29 02:13:35;;;;;;;1.98;0.90;;;21.90;72.20;;;;;;2351488;53;20978;-68
2021/06/29 02:16:02;;;;;;;2.78;1.00;;;21.90;72.30;;;;;;2350465;53;20943;-68
2021/06/29 02:18:28;;;;;;;3.67;1.10;;;21.90;72.20;;;;;;2348019;53;21062;-67
2021/06/29 02:20:56;;;;;;;1.85;0.90;;;21.80;72.20;;;;;;2350709;53;21518;-72
2021/06/29 02:23:22;;;;;;;2.97;0.90;;;21.80;72.30;;;;;;2347656;53;20946;-69
2021/06/29 02:25:49;;;;;;;2.12;0.93;;;21.90;72.40;;;;;;2587087;52;20930;-69
2021/06/29 02:28:15;;;;;;;2.20;1.00;;;21.80;72.30;;;;;;2350636;53;21460;-69
2021/06/29 02:30:41;;;;;;;2.05;0.90;;;21.80;72.40;;;;;;2348031;53;20970;-68
2021/06/29 02:33:08;;;;;;;1.45;0.80;;;21.80;72.40;;;;;;2586684;52;21384;-68
2021/06/29 02:35:36;;;;;;;2.47;1.05;;;21.80;73.00;;;;;;2354863;53;20954;-67
2021/06/29 02:38:02;;;;;;;1.77;0.90;;;21.80;72.30;;;;;;2347299;53;20953;-68
2021/06/29 02:40:29;;;;;;;2.00;0.80;;;21.80;72.30;;;;;;2348779;53;21405;-67
2021/06/29 02:42:55;;;;;;;2.05;0.82;;;21.80;72.30;;;;;;2352740;53;20957;-68
2021/06/29 02:45:22;;;;;;;1.67;0.70;;;21.80;72.30;;;;;;2586768;52;21015;-68
2021/06/29 02:47:49;;;;;;;3.78;0.80;;;21.70;72.30;;;;;;2345498;53;21005;-68
2021/06/29 02:50:15;;;;;;;2.10;1.00;;;21.80;72.50;;;;;;2348446;53;21488;-68
2021/06/29 02:52:41;;;;;;;2.42;0.90;;;21.70;72.40;;;;;;2589489;52;21549;-72
2021/06/29 02:55:09;;;;;;;1.85;0.90;;;21.70;73.30;;;;;;2348485;53;21545;-69
2021/06/29 02:57:35;;;;;;;1.90;1.02;;;21.70;72.50;;;;;;2344656;53;20952;-70
2021/06/29 03:00:05;;;;;;;2.55;0.95;;;21.70;72.60;;;;;;2349494;53;20970;-68
2021/06/29 03:02:31;;;;;;;2.08;1.05;;;21.70;72.50;;;;;;2329367;53;21459;-71
2021/06/29 03:05:00;;;;;;;2.33;0.93;;;21.70;72.60;;;;;;2349335;53;21288;-68
2021/06/29 03:07:26;;;;;;;2.20;1.00;;;21.70;72.50;;;;;;2345864;53;20938;-68
2021/06/29 03:09:52;;;;;;;2.90;1.15;;;21.70;72.60;;;;;;2347322;53;20916;-69
2021/06/29 03:12:19;;;;;;;4.05;1.25;;;21.70;72.60;;;;;;2347061;53;21847;-68
2021/06/29 03:14:45;;;;;;;1.98;1.05;;;21.70;72.60;;;;;;2346227;53;21867;-69
2021/06/29 03:17:11;;;;;;;2.78;0.90;;;21.60;72.50;;;;;;2346903;53;20954;-71
2021/06/29 03:19:38;;;;;;;1.73;0.90;;;21.60;72.60;;;;;;2347777;53;21972;-67
2021/06/29 03:22:04;;;;;;;3.20;0.90;;;21.60;72.60;;;;;;2344689;53;20957;-71
2021/06/29 03:24:31;;;;;;;3.62;0.88;;;21.60;72.60;;;;;;2344704;54;21867;-67
2021/06/29 03:26:57;;;;;;;2.03;0.95;;;21.60;72.60;;;;;;2346275;54;21714;-70
2021/06/29 03:29:23;;;;;;;2.67;1.00;;;21.60;72.60;;;;;;2389544;52;21135;-68
2021/06/29 03:31:49;;;;;;;2.25;1.00;;;21.60;72.60;;;;;;2349260;53;21007;-68
2021/06/29 03:34:16;;;;;;;3.20;1.00;;;21.60;72.60;;;;;;2346880;54;20944;-68
2021/06/29 03:36:45;;;;;;;2.30;0.82;;;21.60;72.60;;;;;;2346678;53;21026;-70
2021/06/29 03:39:12;;;;;;;3.42;0.90;;;21.50;72.50;;;;;;2588186;52;21402;-69
2021/06/29 03:41:39;;;;;;;2.33;0.80;;;21.50;72.50;;;;;;2344646;53;20968;-70
2021/06/29 03:44:08;;;;;;;1.45;0.70;;;21.50;72.50;;;;;;2345500;53;20966;-67
2021/06/29 03:46:34;;;;;;;2.50;0.77;;;21.50;72.40;;;;;;2348396;53;20966;-67
2021/06/29 03:49:01;;;;;;;2.05;0.80;;;21.50;72.40;;;;;;2343690;53;20998;-69
2021/06/29 03:51:29;;;;;;;1.90;0.80;;;21.50;72.40;;;;;;2346634;53;20946;-70
2021/06/29 03:53:55;;;;;;;3.10;0.68;;;21.50;72.30;;;;;;2348118;53;21576;-68
2021/06/29 03:56:24;;;;;;;3.92;0.88;;;21.50;72.40;;;;;;2347943;53;20930;-67
2021/06/29 03:58:54;;;;;;;1.77;0.80;;;21.40;72.20;;;;;;2324838;54;20933;-67
2021/06/29 04:01:20;;;;;;;1.62;0.70;;;21.40;72.20;;;;;;2347249;53;20978;-70
2021/06/29 04:03:47;;;;;;;1.80;0.90;;;21.50;72.40;;;;;;2345529;53;20949;-69
2021/06/29 04:06:14;;;;;;;2.30;0.95;;;21.40;72.30;;;;;;2345190;54;20956;-67
2021/06/29 04:08:43;;;;;;;1.50;0.80;;;21.40;72.30;;;;;;2328721;53;20891;-67
2021/06/29 04:11:12;;;;;;;1.90;0.80;;;21.40;72.40;;;;;;2351264;53;20994;-67
2021/06/29 04:13:38;;;;;;;1.80;0.85;;;21.40;72.30;;;;;;2348164;53;21034;-70
2021/06/29 04:16:07;;;;;;;1.50;0.73;;;21.40;72.40;;;;;;2586768;52;20985;-68
2021/06/29 04:18:33;;;;;;;5.68;0.85;;;21.30;72.20;;;;;;2352251;53;21042;-67
2021/06/29 04:21:00;;;;;;;2.08;0.95;;;21.30;72.30;;;;;;2347580;53;21409;-70
2021/06/29 04:23:26;;;;;;;2.05;1.02;;;21.30;72.30;;;;;;2347541;53;21415;-70
2021/06/29 04:25:54;;;;;;;2.47;0.90;;;21.40;72.50;;;;;;2343633;53;21064;-67
2021/06/29 04:28:20;;;;;;;2.22;0.90;;;21.20;72.20;;;;;;2343732;53;21000;-70
2021/06/29 04:30:46;;;;;;;2.22;0.88;;;21.30;72.40;;;;;;2348968;53;20963;-69
2021/06/29 04:33:13;;;;;;;2.83;0.90;;;21.30;72.40;;;;;;2344403;53;20947;-67
2021/06/29 04:35:39;;;;;;;2.10;1.00;;;21.30;72.40;;;;;;2345654;53;20932;-69
2021/06/29 04:38:05;;;;;;;2.25;1.02;;;21.30;72.50;;;;;;2348345;53;20969;-67
2021/06/29 04:40:32;;;;;;;2.20;1.00;;;21.30;72.50;;;;;;2431648;52;21446;-68
2021/06/29 04:42:58;;;;;;;1.83;0.90;;;21.30;72.50;;;;;;2345734;53;20959;-68
2021/06/29 04:45:26;;;;;;;1.73;0.90;;;21.30;72.50;;;;;;2544426;52;20979;-67
2021/06/29 04:47:54;;;;;;;1.90;0.90;;;21.30;72.60;;;;;;2348441;53;21474;-71
2021/06/29 04:50:21;;;;;;;1.48;0.75;;;21.30;72.60;;;;;;2345077;53;21756;-67
2021/06/29 04:52:48;;;;;;;1.45;0.80;;;21.30;72.80;;;;;;2588575;52;21030;-67
2021/06/29 04:55:14;;;;;;;1.98;0.80;;;21.30;72.90;;;;;;2348859;53;20906;-68
2021/06/29 04:57:41;;;;;;;2.50;0.85;;;21.30;72.90;;;;;;2351586;53;20978;-71
2021/06/29 05:00:09;;;;;;;1.80;0.90;;;21.30;72.90;;;;;;2335425;53;20920;-69
2021/06/29 05:02:36;;;;;;;2.20;1.05;;;21.30;72.90;;;;;;2344088;53;21471;-69
2021/06/29 05:05:03;;;;;;;1.90;0.80;;;21.40;73.10;;;;;;2347529;53;20930;-69
2021/06/29 05:07:29;;;;;;;3.08;1.05;;;21.40;73.20;;;;;;2347800;53;20942;-67
2021/06/29 05:09:55;;;;;;;1.45;0.77;;;21.40;73.20;;;;;;2344283;53;21000;-70
2021/06/29 05:12:24;;;;;;;1.77;0.77;;;21.40;73.10;;;;;;2356689;53;20950;-67
2021/06/29 05:14:50;;;;;;;1.70;0.75;;;21.50;73.30;;;;;;2348949;53;20963;-68
2021/06/29 05:17:17;;;;;;;1.65;0.85;;;21.50;73.40;;;;;;2346912;53;20999;-69
2021/06/29 05:19:43;;;;;;;3.95;1.00;;;21.50;73.40;;;;;;2352728;53;21000;-68
2021/06/29 05:22:11;;;;;;;1.92;1.00;;;21.60;73.50;;;;;;2348890;53;21005;-67
2021/06/29 05:24:40;;;;;;;1.67;0.88;;;21.60;73.40;;;;;;2588898;52;21887;-68
2021/06/29 05:27:07;;;;;;;3.30;1.10;;;21.60;73.40;;;;;;2348223;53;20977;-67
2021/06/29 05:29:35;;;;;;;2.12;0.80;;;21.70;73.50;;;;;;2349026;53;21033;-73
2021/06/29 05:32:01;;;;;;;1.45;0.70;;;21.70;73.40;;;;;;2347172;53;20982;-72
2021/06/29 05:34:28;;;;;;;1.70;0.70;;;21.70;73.50;;;;;;2224374;52;19116688;-68
2021/06/29 05:36:54;;;;;;;2.92;0.90;;;21.70;73.60;;;;;;2349182;53;21022;-69
2021/06/29 05:39:20;;;;;;;2.20;1.00;;;21.80;73.70;;;;;;2347736;53;20938;-69
2021/06/29 05:41:49;;;;;;;1.75;0.80;;;21.80;73.60;;;;;;2330737;53;20934;-68
2021/06/29 05:44:15;;;;;;;2.15;1.00;;;21.80;73.60;;;;;;2348728;53;21053;-70
2021/06/29 05:46:44;;;;;;;2.15;0.98;;;21.90;73.80;;;;;;2347629;53;20979;-68
2021/06/29 05:49:12;;;;;;;1.70;0.90;;;21.90;73.80;;;;;;2330094;54;21524;-68
2021/06/29 05:51:40;;;;;;;2.62;0.80;;;22.00;73.80;;;;;;2352941;53;20974;-68
2021/06/29 05:54:06;;;;;;;2.00;0.90;;;22.00;73.60;;;;;;2350984;53;21015;-68
2021/06/29 05:56:35;;;;;;;2.05;1.00;;;22.10;73.60;;;;;;2587638;52;21536;-67
2021/06/29 05:59:01;;;;;;;1.87;0.90;;;22.10;73.50;;;;;;2346493;53;20942;-69
2021/06/29 06:01:28;;;;;;;2.42;1.10;;;22.10;73.30;;;;;;2352918;53;20973;-68
2021/06/29 06:04:01;;;;;;;2.10;0.93;;;22.10;73.10;;;;;;2350973;53;21054;-67
2021/06/29 06:06:27;;;;;;;2.60;1.10;;;22.10;73.10;;;;;;2351895;53;21882;-68
2021/06/29 06:08:53;;;;;;;1.85;0.80;;;22.20;73.20;;;;;;2350788;53;21408;-71
2021/06/29 06:11:21;;;;;;;2.00;0.95;;;22.20;73.20;;;;;;2547389;52;20967;-68
2021/06/29 06:13:47;;;;;;;3.08;1.00;;;22.20;73.30;;;;;;2347991;53;20983;-71
2021/06/29 06:16:13;;;;;;;2.80;1.30;;;22.20;74.00;;;;;;2424281;52;20998;-68
2021/06/29 06:18:42;;;;;;;2.47;1.33;;;22.30;73.30;;;;;;2352258;53;21321;-68
2021/06/29 06:21:09;;;;;;;2.97;0.98;;;22.30;73.20;;;;;;2427172;53;21639;-68
2021/06/29 06:23:35;;;;;;;2.35;1.10;;;22.30;73.20;;;;;;2350842;53;20945;-68
2021/06/29 06:26:04;;;;;;;2.37;1.20;;;22.30;73.30;;;;;;2589743;52;20958;-72
2021/06/29 06:28:30;;;;;;;1.85;0.90;;;22.40;73.60;;;;;;2559775;53;21038;-71
2021/06/29 06:30:58;;;;;;;1.90;0.90;;;22.40;73.70;;;;;;2587500;52;21085;-68
2021/06/29 06:33:24;;;;;;;2.28;1.10;;;22.50;73.70;;;;;;2346843;53;20985;-72
2021/06/29 06:36:05;;;;;;;1.95;1.00;;;22.50;73.70;;;;;;2413183;52;20918;-69
2021/06/29 06:38:31;;;;;;;2.05;0.90;;;22.60;73.80;;;;;;2329140;53;21534;-70
2021/06/29 06:40:57;;;;;;;2.47;1.20;;;22.60;73.70;;;;;;2351020;53;21066;-68
2021/06/29 06:43:24;;;;;;;2.45;0.98;;;22.70;73.70;;;;;;2588762;52;20931;-68
2021/06/29 06:45:50;;;;;;;2.25;1.17;;;22.70;73.60;;;;;;2350451;53;21029;-69
2021/06/29 06:48:16;;;;;;;2.17;1.08;;;22.80;73.80;;;;;;2586512;52;21625;-69
2021/06/29 06:50:42;;;;;;;3.20;1.10;;;22.80;73.80;;;;;;2586770;52;20978;-68
2021/06/29 06:53:09;;;;;;;2.17;1.08;;;22.90;74.00;;;;;;2350815;53;21735;-68
2021/06/29 06:55:35;;;;;;;2.87;1.30;;;22.90;74.00;;;;;;2347354;53;21601;-68
2021/06/29 06:58:01;;;;;;;2.28;1.02;;;23.00;74.10;;;;;;2349219;53;20926;-69
2021/06/29 07:00:29;;;;;;;2.87;0.98;;;23.10;74.20;;;;;;2350639;53;20942;-69
2021/06/29 07:02:58;;;;;;;2.00;1.20;;;23.20;74.40;;;;;;2347504;53;20995;-69
2021/06/29 07:05:24;;;;;;;2.75;1.12;;;23.30;74.40;;;;;;2353461;53;20967;-72
2021/06/29 07:07:51;;;;;;;2.62;1.00;;;23.40;74.90;;;;;;2587746;52;20961;-70
2021/06/29 07:10:17;;;;;;;2.60;1.17;;;23.40;73.90;;;;;;2349094;53;21002;-68
2021/06/29 07:12:44;;;;;;;2.20;0.90;;;23.50;73.60;;;;;;2346220;53;20949;-68
2021/06/29 07:15:10;;;;;;;1.90;0.98;;;23.60;73.50;;;;;;2355075;53;21424;-69
2021/06/29 07:17:37;;;;;;;2.17;1.10;;;23.70;73.50;;;;;;2344619;53;20937;-69
2021/06/29 07:20:13;;;;;;;2.12;1.00;;;23.70;73.50;;;;;;2590264;52;21089;-71
2021/06/29 07:22:39;;;;;;;2.00;0.90;;;23.80;73.70;;;;;;2328860;53;21282;-71
2021/06/29 07:25:06;;;;;;;1.73;0.75;;;23.90;74.10;;;;;;2347370;53;21027;-69
2021/06/29 07:27:33;;;;;;;2.97;1.00;;;24.00;74.20;;;;;;2588077;52;20973;-69
2021/06/29 07:29:59;;;;;;;3.58;1.23;;;24.10;73.90;;;;;;2350690;53;20956;-69
2021/06/29 07:32:26;;;;;;;2.20;1.05;;;24.20;73.80;;;;;;2348918;53;21003;-69
2021/06/29 07:34:54;;;;;;;2.08;1.10;;;24.30;73.70;;;;;;2586650;52;20975;-69
2021/06/29 07:37:20;;;;;;;1.83;0.90;;;24.40;73.80;;;;;;2352091;53;21214;-69
2021/06/29 07:39:48;;;;;;;2.08;1.05;;;24.50;73.60;;;;;;2586914;52;21022;-68
2021/06/29 07:42:14;;;;;;;2.40;1.10;;;24.60;72.80;;;;;;2346711;53;22015;-67
2021/06/29 07:44:40;;;;;;;2.45;1.20;;;24.60;72.30;;;;;;2351019;53;21762;-69
2021/06/29 07:47:06;;;;;;;2.00;1.02;;;24.70;72.30;;;;;;2348012;53;21915;-71
2021/06/29 07:49:33;;;;;;;2.00;1.10;;;24.70;72.20;;;;;;2587719;52;20939;-72
2021/06/29 07:52:00;;;;;;;2.30;1.00;;;24.80;72.50;;;;;;2351630;53;20997;-69
2021/06/29 07:54:28;;;;;;;2.70;1.27;;;24.80;72.30;;;;;;2588342;52;21334;-66
2021/06/29 07:56:54;;;;;;;1.80;0.90;;;24.90;72.30;;;;;;2349334;53;20995;-71
2021/06/29 07:59:21;;;;;;;3.33;1.00;;;25.00;72.30;;;;;;2361567;52;20955;-70
2021/06/29 08:01:47;;;;;;;3.33;1.30;;;25.00;72.00;;;;;;2348097;53;20981;-67
2021/06/29 08:04:14;;;;;;;3.10;1.08;;;25.10;72.00;;;;;;2347546;53;21838;-65
2021/06/29 08:06:40;;;;;;;3.53;1.10;;;25.20;72.20;;;;;;2350701;53;20930;-66
2021/06/29 08:09:07;;;;;;;2.33;1.02;;;25.20;72.20;;;;;;2352641;53;20990;-66
2021/06/29 08:11:35;;;;;;;2.47;1.20;;;25.30;72.20;;;;;;2348268;53;21415;-66
2021/06/29 08:14:01;;;;;;;3.30;0.98;;;25.40;72.30;;;;;;2368627;52;21027;-68
2021/06/29 08:16:28;;;;;;;2.10;1.10;;;25.40;72.20;;;;;;2587043;52;21010;-69
2021/06/29 08:18:54;;;;;;;2.50;1.20;;;25.50;72.20;;;;;;2330245;53;20982;-66
2021/06/29 08:21:20;;;;;;;1.90;1.00;;;25.50;71.90;;;;;;2587410;52;20933;-65
2021/06/29 08:23:47;;;;;;;2.60;1.15;;;25.70;71.60;;;;;;2590759;52;20974;-68
2021/06/29 08:26:13;;;;;;;2.12;1.00;;;25.70;71.10;;;;;;2352629;53;20967;-68
2021/06/29 08:28:39;;;;;;;2.42;1.10;;;25.70;70.70;;;;;;2351772;53;21008;-68
2021/06/29 08:31:06;;;;;;;2.75;1.10;;;25.70;70.30;;;;;;2552271;52;21010;-67
2021/06/29 08:33:33;;;;;;;2.20;1.05;;;25.70;70.10;;;;;;2357163;53;21073;-70
2021/06/29 08:36:04;;;;;;;3.05;1.20;;;25.70;70.00;;;;;;2351181;53;21025;-68
2021/06/29 08:38:30;;;;;;;2.10;1.00;;;25.70;69.70;;;;;;2348725;53;20959;-69
2021/06/29 08:40:58;;;;;;;1.87;0.90;;;25.70;70.10;;;;;;2349905;53;20978;-68
2021/06/29 08:43:25;;;;;;;2.65;1.27;;;25.70;70.20;;;;;;2350267;53;20922;-68
2021/06/29 08:45:52;;;;;;;2.90;1.20;;;25.60;70.30;;;;;;2589466;52;20939;-70
2021/06/29 08:48:19;;;;;;;2.87;0.98;;;25.70;70.50;;;;;;2344019;53;21395;-68
2021/06/29 08:50:46;;;;;;;3.28;1.10;;;25.70;70.70;;;;;;2587489;52;21010;-67
2021/06/29 08:53:13;;;;;;;1.80;0.90;;;25.70;70.80;;;;;;2348414;53;20952;-68
2021/06/29 08:55:58;;;;;;;2.28;1.10;;;25.70;70.90;;;;;;2353299;53;20977;-68
2021/06/29 08:58:25;;;;;;;3.53;1.20;;;25.80;70.10;;;;;;2352564;53;21006;-74
2021/06/29 09:00:52;;;;;;;2.35;1.15;;;25.90;71.30;;;;;;2349220;53;21073;-71
2021/06/29 09:03:20;;;;;;;2.22;1.10;;;26.00;71.50;;;;;;2533818;52;22059;-68
2021/06/29 09:05:47;;;;;;;2.20;1.30;;;26.10;71.50;;;;;;2349000;53;20914;-71
2021/06/29 09:08:21;;;;;;;2.10;1.10;;;26.10;71.30;;;;;;2348593;53;21046;-68
2021/06/29 09:11:16;;;;;;;2.03;0.90;;;26.30;70.90;;;;;;2349878;53;21993;-68
2021/06/29 09:14:00;;;;;;;3.58;0.98;;;26.40;69.70;;;;;;2346538;53;21111;-68
2021/06/29 09:16:26;;;;;;;4.20;1.62;;;26.50;70.80;;;;;;2348268;53;20953;-70
2021/06/29 09:18:52;;;;;;;1.92;1.00;;;26.60;70.70;;;;;;2350109;53;21526;-70
2021/06/29 09:21:19;;;;;;;1.80;0.90;;;26.60;70.50;;;;;;2351522;53;21001;-70
2021/06/29 09:23:49;;;;;;;2.40;1.37;;;26.70;70.30;;;;;;2350908;53;21355;-72
2021/06/29 09:26:17;;;;;;;2.80;1.40;;;26.80;69.90;;;;;;2349378;53;20938;-68
2021/06/29 09:28:46;;;;;;;2.03;0.95;;;26.80;69.20;;;;;;2351363;53;20950;-68
2021/06/29 09:31:17;;;;;;;2.10;1.02;;;26.80;68.80;;;;;;2345010;53;20945;-68
2021/06/29 09:33:45;;;;;;;2.53;1.20;;;26.80;68.60;;;;;;2349471;53;20922;-68
2021/06/29 09:36:15;;;;;;;2.15;1.02;;;26.80;68.40;;;;;;2328762;53;21459;-68
2021/06/29 09:38:43;;;;;;;2.67;1.40;;;26.80;67.80;;;;;;2347537;53;21014;-68
2021/06/29 09:41:14;;;;;;;2.15;1.05;;;26.80;68.10;;;;;;2350230;53;20942;-69
2021/06/29 09:43:44;;;;;;;2.40;1.10;;;26.80;68.20;;;;;;2347494;53;20943;-69
2021/06/29 09:46:12;;;;;;;3.05;1.02;;;26.90;68.60;;;;;;2330555;53;21582;-71
2021/06/29 09:48:41;;;;;;;2.25;1.08;;;26.90;68.60;;;;;;2350271;53;20970;-68
2021/06/29 09:51:18;;;;;;;2.17;1.15;;;27.00;68.90;;;;;;2351915;53;21018;-69
2021/06/29 09:53:46;;;;;;;2.30;1.00;;;27.00;67.70;;;;;;2527760;52;20966;-71
2021/06/29 09:56:23;;;;;;;2.42;1.17;;;27.10;68.10;;;;;;2348336;53;20994;-68
2021/06/29 09:58:56;;;;;;;3.15;0.90;;;27.10;67.90;;;;;;2348629;53;21101;-69
2021/06/29 10:01:26;;;;;;;2.95;1.20;;;27.10;66.90;;;;;;2558261;52;21003;-70
2021/06/29 10:03:52;;;;;;;1.95;0.80;;;27.10;67.00;;;;;;2586206;52;21006;-68
2021/06/29 10:06:23;;;;;;;2.05;1.00;;;27.10;67.30;;;;;;2349183;53;21057;-69
2021/06/29 10:08:53;;;;;;;2.15;0.95;;;27.10;67.00;;;;;;2346374;53;21017;-68
2021/06/29 10:11:24;;;;;;;2.00;1.08;;;27.10;67.10;;;;;;2348889;53;21045;-68
2021/06/29 10:14:04;;;;;;;1.92;1.05;;;27.20;66.70;;;;;;2354978;53;20974;-67
2021/06/29 10:16:32;;;;;;;2.03;1.10;;;27.20;66.30;;;;;;2590266;52;20936;-70
2021/06/29 10:19:14;;;;;;;1.98;1.02;;;27.20;66.70;;;;;;2351720;53;21017;-71
2021/06/29 10:21:51;;;;;;;2.75;0.90;;;27.20;66.40;;;;;;2346024;53;21008;-70
2021/06/29 10:24:21;;;;;;;1.95;0.82;;;27.20;65.10;;;;;;2586908;52;20982;-71
2021/06/29 10:26:49;;;;;;;2.10;1.00;;;27.10;65.40;;;;;;2348511;53;20942;-68
2021/06/29 10:29:18;;;;;;;1.60;0.80;;;27.10;65.20;;;;;;2590282;52;20969;-68
2021/06/29 10:31:46;;;;;;;4.03;0.95;;;27.10;65.10;;;;;;2348164;53;20941;-68
2021/06/29 10:34:12;;;;;;;4.03;0.90;;;27.00;65.60;;;;;;2348632;53;21259;-71
2021/06/29 10:36:41;;;;;;;1.90;0.95;;;26.90;64.80;;;;;;2348359;53;21344;-69
2021/06/29 10:39:09;;;;;;;1.98;0.98;;;26.90;64.60;;;;;;2351175;53;20978;-68
2021/06/29 10:41:38;;;;;;;1.98;0.82;;;26.80;64.70;;;;;;2348830;53;21022;-66
2021/06/29 10:44:09;;;;;;;1.50;0.80;;;26.70;64.70;;;;;;2345815;53;20970;-69
2021/06/29 10:46:40;;;;;;;2.72;0.90;;;26.60;64.50;;;;;;2327652;53;21050;-66
2021/06/29 10:49:29;;;;;;;2.30;0.73;;;26.60;64.90;;;;;;2348426;53;20982;-66
2021/06/29 10:52:02;;;;;;;2.80;1.05;;;26.50;64.00;;;;;;2355627;53;21544;-70
2021/06/29 10:54:38;;;;;;;;;;;26.40;64.50;;;;;;2509193;52;20978;-70
2021/06/29 10:57:10;;;;;;;2.00;0.80;;;26.40;64.30;;;;;;2355360;53;20067;-74
2021/06/29 10:59:39;;;;;;;2.45;0.82;;;26.30;64.30;;;;;;2350622;53;21635;-71
2021/06/29 11:02:07;;;;;;;2.20;0.90;;;26.10;64.00;;;;;;2351061;53;21001;-70
2021/06/29 11:04:53;;;;;;;1.83;0.80;;;25.90;63.40;;;;;;2348791;53;21621;-70
2021/06/29 11:08:03;;;;;;;1.15;0.55;;;25.60;61.70;;;;;;2349734;53;20938;-74
2021/06/29 11:10:39;;;;;;;1.45;0.55;;;25.30;61.20;;;;;;2352500;53;20946;-71
2021/06/29 11:13:06;;;;;;;2.83;0.70;;;24.90;60.90;;;;;;2347394;53;20954;-71
2021/06/29 11:15:59;;;;;;;1.23;0.57;;;24.60;61.00;;;;;;2589113;52;20960;-69
2021/06/29 11:19:43;;;;;;;1.37;0.70;;;24.20;61.20;;;;;;2585012;52;20963;-77
2021/06/29 11:22:47;;;;;;;1.58;0.70;;;23.70;61.50;;;;;;2419719;52;21017;-72
2021/06/29 11:25:13;;;;;;;2.10;0.80;;;23.30;61.80;;;;;;2407374;52;20918;-75
2021/06/29 11:28:02;;;;;;;1.42;0.60;;;22.90;62.40;;;;;;2348273;53;21006;-73
2021/06/29 11:37:19;;;;;;;2.28;0.93;;;22.60;63.20;;;;;;2350708;53;21034;-70
2021/06/29 11:39:56;;;;;;;1.85;0.80;;;21.70;64.80;;;;;;2355829;53;21892;-71
2021/06/29 11:42:22;;;;;;;1.98;0.70;;;21.40;65.60;;;;;;2466019;53;21095;-74
2021/06/29 11:44:52;;;;;;;3.30;0.65;;;21.20;66.30;;;;;;2346823;53;21101;-73
2021/06/29 11:47:20;;;;;;;3.67;1.00;;;21.00;67.60;;;;;;2434450;52;20938;-73
2021/06/29 11:50:00;;;;;;;3.83;0.85;;;20.80;67.60;;;;;;2352123;53;20970;-72
2021/06/29 11:52:33;;;;;;;3.53;1.35;;;20.60;68.30;;;;;;2349339;53;20922;-71
2021/06/29 11:55:17;;;;;;;2.60;1.02;;;20.40;68.90;;;;;;2348292;53;21034;-71
2021/06/29 11:57:53;;;;;;;1.92;0.88;;;20.30;69.50;;;;;;2347488;53;20929;-72
2021/06/29 12:00:33;;;;;;;1.77;0.62;;;20.20;70.10;;;;;;2349107;53;20974;-73
2021/06/29 12:03:09;;;;;;;1.40;0.65;;;20.20;70.80;;;;;;2588178;52;21831;-72
2021/06/29 12:05:36;;;;;;;0.73;0.40;;;20.10;71.20;;;;;;2479886;52;21740;-74
2021/06/29 12:08:15;;;;;;;1.25;0.40;;;20.10;71.50;;;;;;2349997;53;20974;-72
2021/06/29 12:10:49;;;;;;;1.50;0.70;;;20.00;71.60;;;;;;2361484;53;20964;-73
2021/06/29 12:13:18;;;;;;;1.37;0.50;;;20.00;71.90;;;;;;2349125;54;20992;-73
2021/06/29 12:15:45;;;;;;;1.10;0.52;;;20.00;72.20;;;;;;2587119;52;20938;-73
2021/06/29 12:18:36;;;;;;;4.40;0.70;;;19.90;72.10;;;;;;2438274;52;20984;-73
2021/06/29 12:21:05;;;;;;;3.45;0.70;;;19.90;72.40;;;;;;2351745;53;21014;-74
2021/06/29 12:23:34;;;;;;;1.75;0.60;;;19.80;72.70;;;;;;2346639;53;21475;-74
2021/06/29 12:26:05;;;;;;;1.20;0.50;;;19.80;72.80;;;;;;2348642;53;21418;-73
2021/06/29 12:28:34;;;;;;;3.47;0.77;;;19.80;72.90;;;;;;2348697;53;21001;-73
2021/06/29 12:31:02;;;;;;;1.27;0.45;;;19.80;73.10;;;;;;2354389;52;21758;-72
2021/06/29 12:33:34;;;;;;;1.85;0.62;;;19.80;73.40;;;;;;2347269;53;20999;-73
2021/06/29 12:36:07;;;;;;;2.87;0.70;;;19.80;73.80;;;;;;2350793;53;21483;-73
2021/06/29 12:38:35;;;;;;;2.15;0.60;;;19.80;73.80;;;;;;2348815;53;21673;-72
2021/06/29 12:41:05;;;;;;;2.15;0.60;;;19.70;73.90;;;;;;2352853;53;21022;-72
2021/06/29 12:43:38;;;;;;;1.77;0.68;;;19.70;74.70;;;;;;2352492;53;20950;-72
2021/06/29 12:48:02;;;;;;;1.60;0.57;;;19.70;74.00;;;;;;2425702;52;20990;-73
2021/06/29 12:50:29;;;;;;;1.50;0.50;;;19.70;73.60;;;;;;2354988;53;20965;-73
2021/06/29 12:52:55;;;;;;;1.05;0.50;;;19.80;74.20;;;;;;2587588;52;21017;-74
2021/06/29 12:55:23;;;;;;;1.00;0.50;;;19.70;74.30;;;;;;2348405;53;21357;-73
2021/06/29 12:58:07;;;;;;;0.88;0.45;;;19.70;75.20;;;;;;2587119;52;20938;-73
2021/06/29 13:00:37;;;;;;;1.85;0.55;;;19.70;74.40;;;;;;2352554;53;21697;-73
2021/06/29 13:03:04;;;;;;;0.77;0.40;;;19.70;74.70;;;;;;2515140;52;22302;-73
2021/06/29 13:05:30;;;;;;;0.60;0.30;;;19.60;74.80;;;;;;2356719;53;21027;-72